sensor_id;sensor_type;location;lat;lon;timestamp;P1;durP1;ratioP1;P2;durP2;ratioP2
62030;SDS011;62035;52.094;5.112;2023-09-07T00:00:14;7.78;;;5.00;;
62030;SDS011;62035;52.094;5.112;2023-09-07T00:02:42;7.53;;;4.78;;
62030;SDS011;62035;52.094;5.112;2023-09-07T00:05:12;6.28;;;4.60;;
62030;SDS011;62035;52.094;5.112;2023-09-07T00:07:41;12.38;;;6.85;;
62030;SDS011;62035;52.094;5.112;2023-09-07T00:10:10;9.98;;;5.10;;
62030;SDS011;62035;52.094;5.112;2023-09-07T00:12:37;9.35;;;4.70;;
62030;SDS011;62035;52.094;5.112;2023-09-07T00:15:05;6.78;;;5.07;;
62030;SDS011;62035;52.094;5.112;2023-09-07T00:17:34;7.53;;;5.28;;
62030;SDS011;62035;52.094;5.112;2023-09-07T00:20:02;8.48;;;4.97;;
62030;SDS011;62035;52.094;5.112;2023-09-07T00:22:35;6.35;;;5.05;;
62030;SDS011;62035;52.094;5.112;2023-09-07T00:25:02;7.00;;;5.07;;
62030;SDS011;62035;52.094;5.112;2023-09-07T00:27:33;6.97;;;4.78;;
62030;SDS011;62035;52.094;5.112;2023-09-07T00:30:01;7.20;;;5.20;;
62030;SDS011;62035;52.094;5.112;2023-09-07T00:32:27;7.95;;;5.40;;
62030;SDS011;62035;52.094;5.112;2023-09-07T00:34:55;12.85;;;5.57;;
62030;SDS011;62035;52.094;5.112;2023-09-07T00:37:22;10.60;;;5.50;;
62030;SDS011;62035;52.094;5.112;2023-09-07T00:39:50;6.85;;;5.07;;
62030;SDS011;62035;52.094;5.112;2023-09-07T00:42:19;13.02;;;5.13;;
62030;SDS011;62035;52.094;5.112;2023-09-07T00:44:48;8.00;;;5.18;;
62030;SDS011;62035;52.094;5.112;2023-09-07T00:47:15;7.43;;;5.40;;
62030;SDS011;62035;52.094;5.112;2023-09-07T00:49:43;9.65;;;5.50;;
62030;SDS011;62035;52.094;5.112;2023-09-07T00:52:11;8.85;;;5.93;;
62030;SDS011;62035;52.094;5.112;2023-09-07T00:54:39;7.03;;;5.30;;
62030;SDS011;62035;52.094;5.112;2023-09-07T00:57:07;10.70;;;5.38;;
62030;SDS011;62035;52.094;5.112;2023-09-07T00:59:35;7.70;;;5.60;;
62030;SDS011;62035;52.094;5.112;2023-09-07T01:02:04;10.80;;;5.05;;
62030;SDS011;62035;52.094;5.112;2023-09-07T01:04:32;8.30;;;5.22;;
62030;SDS011;62035;52.094;5.112;2023-09-07T01:07:01;7.50;;;5.00;;
62030;SDS011;62035;52.094;5.112;2023-09-07T01:09:32;8.85;;;5.03;;
62030;SDS011;62035;52.094;5.112;2023-09-07T01:12:04;9.15;;;5.13;;
62030;SDS011;62035;52.094;5.112;2023-09-07T01:14:36;8.80;;;5.30;;
62030;SDS011;62035;52.094;5.112;2023-09-07T01:17:05;8.70;;;5.38;;
62030;SDS011;62035;52.094;5.112;2023-09-07T01:19:33;8.00;;;5.55;;
62030;SDS011;62035;52.094;5.112;2023-09-07T01:22:03;8.00;;;5.22;;
62030;SDS011;62035;52.094;5.112;2023-09-07T01:24:31;6.95;;;5.22;;
62030;SDS011;62035;52.094;5.112;2023-09-07T01:27:01;7.22;;;5.65;;
62030;SDS011;62035;52.094;5.112;2023-09-07T01:29:30;7.93;;;5.60;;
62030;SDS011;62035;52.094;5.112;2023-09-07T01:31:58;14.00;;;6.43;;
62030;SDS011;62035;52.094;5.112;2023-09-07T01:34:26;9.68;;;6.10;;
62030;SDS011;62035;52.094;5.112;2023-09-07T01:36:54;9.35;;;5.53;;
62030;SDS011;62035;52.094;5.112;2023-09-07T01:39:23;8.30;;;5.88;;
62030;SDS011;62035;52.094;5.112;2023-09-07T01:41:52;10.50;;;6.00;;
62030;SDS011;62035;52.094;5.112;2023-09-07T01:44:19;9.95;;;5.80;;
62030;SDS011;62035;52.094;5.112;2023-09-07T01:46:46;9.98;;;5.53;;
62030;SDS011;62035;52.094;5.112;2023-09-07T01:49:14;8.15;;;5.70;;
62030;SDS011;62035;52.094;5.112;2023-09-07T01:51:41;10.95;;;6.43;;
62030;SDS011;62035;52.094;5.112;2023-09-07T01:54:08;8.45;;;5.60;;
62030;SDS011;62035;52.094;5.112;2023-09-07T01:56:43;8.85;;;5.47;;
62030;SDS011;62035;52.094;5.112;2023-09-07T01:59:11;11.48;;;6.05;;
62030;SDS011;62035;52.094;5.112;2023-09-07T02:01:38;9.82;;;5.85;;
62030;SDS011;62035;52.094;5.112;2023-09-07T02:04:06;10.35;;;5.78;;
62030;SDS011;62035;52.094;5.112;2023-09-07T02:06:33;7.43;;;5.32;;
62030;SDS011;62035;52.094;5.112;2023-09-07T02:09:00;10.50;;;5.75;;
62030;SDS011;62035;52.094;5.112;2023-09-07T02:11:27;7.97;;;5.35;;
62030;SDS011;62035;52.094;5.112;2023-09-07T02:13:56;10.73;;;5.85;;
62030;SDS011;62035;52.094;5.112;2023-09-07T02:16:23;9.27;;;6.00;;
62030;SDS011;62035;52.094;5.112;2023-09-07T02:18:50;8.85;;;5.75;;
62030;SDS011;62035;52.094;5.112;2023-09-07T02:21:27;7.43;;;5.90;;
62030;SDS011;62035;52.094;5.112;2023-09-07T02:23:55;9.13;;;5.90;;
62030;SDS011;62035;52.094;5.112;2023-09-07T02:26:23;8.98;;;6.03;;
62030;SDS011;62035;52.094;5.112;2023-09-07T02:32:14;12.90;;;6.03;;
62030;SDS011;62035;52.094;5.112;2023-09-07T02:34:41;9.10;;;5.88;;
62030;SDS011;62035;52.094;5.112;2023-09-07T02:37:09;12.35;;;5.70;;
62030;SDS011;62035;52.094;5.112;2023-09-07T02:39:36;7.05;;;5.40;;
62030;SDS011;62035;52.094;5.112;2023-09-07T02:42:03;7.18;;;5.72;;
62030;SDS011;62035;52.094;5.112;2023-09-07T02:44:31;8.57;;;6.10;;
62030;SDS011;62035;52.094;5.112;2023-09-07T02:46:58;10.60;;;6.30;;
62030;SDS011;62035;52.094;5.112;2023-09-07T02:49:27;10.88;;;6.07;;
62030;SDS011;62035;52.094;5.112;2023-09-07T02:51:54;10.90;;;6.40;;
62030;SDS011;62035;52.094;5.112;2023-09-07T02:54:22;10.00;;;6.18;;
62030;SDS011;62035;52.094;5.112;2023-09-07T02:56:50;10.20;;;6.45;;
62030;SDS011;62035;52.094;5.112;2023-09-07T02:59:17;8.00;;;6.15;;
62030;SDS011;62035;52.094;5.112;2023-09-07T03:01:45;9.93;;;6.60;;
62030;SDS011;62035;52.094;5.112;2023-09-07T03:04:12;9.20;;;6.55;;
62030;SDS011;62035;52.094;5.112;2023-09-07T03:06:41;9.48;;;6.35;;
62030;SDS011;62035;52.094;5.112;2023-09-07T03:09:08;9.98;;;6.43;;
62030;SDS011;62035;52.094;5.112;2023-09-07T03:11:35;9.48;;;6.60;;
62030;SDS011;62035;52.094;5.112;2023-09-07T03:14:03;9.73;;;6.35;;
62030;SDS011;62035;52.094;5.112;2023-09-07T03:16:30;10.38;;;7.13;;
62030;SDS011;62035;52.094;5.112;2023-09-07T03:18:58;9.68;;;6.25;;
62030;SDS011;62035;52.094;5.112;2023-09-07T03:21:25;10.10;;;6.30;;
62030;SDS011;62035;52.094;5.112;2023-09-07T03:23:56;11.32;;;6.20;;
62030;SDS011;62035;52.094;5.112;2023-09-07T03:26:23;13.07;;;6.47;;
62030;SDS011;62035;52.094;5.112;2023-09-07T03:28:51;10.88;;;7.05;;
62030;SDS011;62035;52.094;5.112;2023-09-07T03:31:19;9.90;;;6.78;;
62030;SDS011;62035;52.094;5.112;2023-09-07T03:33:53;9.00;;;6.90;;
62030;SDS011;62035;52.094;5.112;2023-09-07T03:36:20;7.80;;;6.28;;
62030;SDS011;62035;52.094;5.112;2023-09-07T03:38:49;8.73;;;6.55;;
62030;SDS011;62035;52.094;5.112;2023-09-07T03:41:17;8.77;;;6.80;;
62030;SDS011;62035;52.094;5.112;2023-09-07T03:43:44;11.15;;;6.97;;
62030;SDS011;62035;52.094;5.112;2023-09-07T03:46:12;13.38;;;7.90;;
62030;SDS011;62035;52.094;5.112;2023-09-07T03:48:39;10.15;;;6.88;;
62030;SDS011;62035;52.094;5.112;2023-09-07T03:51:06;10.02;;;7.00;;
62030;SDS011;62035;52.094;5.112;2023-09-07T03:53:33;10.55;;;7.50;;
62030;SDS011;62035;52.094;5.112;2023-09-07T03:56:01;10.13;;;7.30;;
62030;SDS011;62035;52.094;5.112;2023-09-07T03:58:32;9.25;;;7.25;;
62030;SDS011;62035;52.094;5.112;2023-09-07T04:00:59;10.30;;;7.40;;
62030;SDS011;62035;52.094;5.112;2023-09-07T04:03:26;11.20;;;7.43;;
62030;SDS011;62035;52.094;5.112;2023-09-07T04:05:54;9.73;;;7.05;;
62030;SDS011;62035;52.094;5.112;2023-09-07T04:08:21;12.20;;;7.47;;
62030;SDS011;62035;52.094;5.112;2023-09-07T04:10:48;12.13;;;7.90;;
62030;SDS011;62035;52.094;5.112;2023-09-07T04:13:15;12.82;;;7.20;;
62030;SDS011;62035;52.094;5.112;2023-09-07T04:15:44;10.73;;;7.60;;
62030;SDS011;62035;52.094;5.112;2023-09-07T04:18:12;8.85;;;6.70;;
62030;SDS011;62035;52.094;5.112;2023-09-07T04:20:41;12.25;;;7.90;;
62030;SDS011;62035;52.094;5.112;2023-09-07T04:23:08;10.45;;;7.20;;
62030;SDS011;62035;52.094;5.112;2023-09-07T04:25:35;10.88;;;7.53;;
62030;SDS011;62035;52.094;5.112;2023-09-07T04:28:04;13.02;;;7.35;;
62030;SDS011;62035;52.094;5.112;2023-09-07T04:30:32;10.13;;;7.97;;
62030;SDS011;62035;52.094;5.112;2023-09-07T04:33:01;13.05;;;7.45;;
62030;SDS011;62035;52.094;5.112;2023-09-07T04:35:28;9.95;;;7.13;;
62030;SDS011;62035;52.094;5.112;2023-09-07T04:37:56;12.23;;;8.07;;
62030;SDS011;62035;52.094;5.112;2023-09-07T04:40:23;12.65;;;7.43;;
62030;SDS011;62035;52.094;5.112;2023-09-07T04:42:51;11.38;;;7.63;;
62030;SDS011;62035;52.094;5.112;2023-09-07T04:45:20;10.57;;;7.72;;
62030;SDS011;62035;52.094;5.112;2023-09-07T04:47:49;13.07;;;8.13;;
62030;SDS011;62035;52.094;5.112;2023-09-07T04:50:17;18.75;;;7.43;;
62030;SDS011;62035;52.094;5.112;2023-09-07T04:52:45;12.18;;;7.90;;
62030;SDS011;62035;52.094;5.112;2023-09-07T04:55:12;16.90;;;7.38;;
62030;SDS011;62035;52.094;5.112;2023-09-07T04:57:39;14.20;;;7.45;;
62030;SDS011;62035;52.094;5.112;2023-09-07T05:00:07;16.92;;;7.88;;
62030;SDS011;62035;52.094;5.112;2023-09-07T05:02:35;13.90;;;7.85;;
62030;SDS011;62035;52.094;5.112;2023-09-07T05:05:06;14.45;;;7.85;;
62030;SDS011;62035;52.094;5.112;2023-09-07T05:07:35;9.90;;;7.25;;
62030;SDS011;62035;52.094;5.112;2023-09-07T05:10:02;10.32;;;7.55;;
62030;SDS011;62035;52.094;5.112;2023-09-07T05:12:32;9.27;;;7.50;;
62030;SDS011;62035;52.094;5.112;2023-09-07T05:14:59;13.13;;;7.40;;
62030;SDS011;62035;52.094;5.112;2023-09-07T05:17:27;10.38;;;7.20;;
62030;SDS011;62035;52.094;5.112;2023-09-07T05:19:54;12.05;;;8.05;;
62030;SDS011;62035;52.094;5.112;2023-09-07T05:22:21;14.60;;;8.25;;
62030;SDS011;62035;52.094;5.112;2023-09-07T05:24:50;10.93;;;7.47;;
62030;SDS011;62035;52.094;5.112;2023-09-07T05:27:17;11.20;;;7.38;;
62030;SDS011;62035;52.094;5.112;2023-09-07T05:29:44;10.63;;;7.50;;
62030;SDS011;62035;52.094;5.112;2023-09-07T05:32:12;10.68;;;7.25;;
62030;SDS011;62035;52.094;5.112;2023-09-07T05:34:39;11.55;;;7.10;;
62030;SDS011;62035;52.094;5.112;2023-09-07T05:37:07;11.13;;;7.32;;
62030;SDS011;62035;52.094;5.112;2023-09-07T05:39:34;11.70;;;7.18;;
62030;SDS011;62035;52.094;5.112;2023-09-07T05:42:03;11.20;;;7.00;;
62030;SDS011;62035;52.094;5.112;2023-09-07T05:44:30;10.73;;;7.07;;
62030;SDS011;62035;52.094;5.112;2023-09-07T05:46:58;16.35;;;6.95;;
62030;SDS011;62035;52.094;5.112;2023-09-07T05:49:25;11.48;;;7.55;;
62030;SDS011;62035;52.094;5.112;2023-09-07T05:51:53;15.57;;;7.65;;
62030;SDS011;62035;52.094;5.112;2023-09-07T05:54:20;14.73;;;8.05;;
62030;SDS011;62035;52.094;5.112;2023-09-07T05:56:48;16.95;;;7.45;;
62030;SDS011;62035;52.094;5.112;2023-09-07T05:59:17;13.40;;;7.47;;
62030;SDS011;62035;52.094;5.112;2023-09-07T06:01:44;13.80;;;7.07;;
62030;SDS011;62035;52.094;5.112;2023-09-07T06:04:11;13.00;;;7.55;;
62030;SDS011;62035;52.094;5.112;2023-09-07T06:06:39;10.35;;;6.78;;
62030;SDS011;62035;52.094;5.112;2023-09-07T06:09:06;10.23;;;6.45;;
62030;SDS011;62035;52.094;5.112;2023-09-07T06:11:33;13.88;;;7.30;;
62030;SDS011;62035;52.094;5.112;2023-09-07T06:14:01;11.57;;;6.32;;
62030;SDS011;62035;52.094;5.112;2023-09-07T06:16:29;12.55;;;6.80;;
62030;SDS011;62035;52.094;5.112;2023-09-07T06:18:57;12.95;;;6.93;;
62030;SDS011;62035;52.094;5.112;2023-09-07T06:21:24;10.38;;;6.82;;
62030;SDS011;62035;52.094;5.112;2023-09-07T06:23:51;9.55;;;6.60;;
62030;SDS011;62035;52.094;5.112;2023-09-07T06:26:18;12.40;;;7.10;;
62030;SDS011;62035;52.094;5.112;2023-09-07T06:28:45;10.75;;;5.97;;
62030;SDS011;62035;52.094;5.112;2023-09-07T06:31:13;11.60;;;6.63;;
62030;SDS011;62035;52.094;5.112;2023-09-07T06:33:41;10.35;;;6.60;;
62030;SDS011;62035;52.094;5.112;2023-09-07T06:36:08;17.13;;;6.80;;
62030;SDS011;62035;52.094;5.112;2023-09-07T06:38:36;10.18;;;6.03;;
62030;SDS011;62035;52.094;5.112;2023-09-07T06:41:03;14.27;;;6.20;;
62030;SDS011;62035;52.094;5.112;2023-09-07T06:43:33;10.68;;;6.18;;
62030;SDS011;62035;52.094;5.112;2023-09-07T06:46:05;10.82;;;6.65;;
62030;SDS011;62035;52.094;5.112;2023-09-07T06:48:33;10.95;;;5.70;;
62030;SDS011;62035;52.094;5.112;2023-09-07T06:51:02;11.95;;;5.10;;
62030;SDS011;62035;52.094;5.112;2023-09-07T06:53:30;13.60;;;5.95;;
62030;SDS011;62035;52.094;5.112;2023-09-07T06:55:57;13.02;;;5.88;;
62030;SDS011;62035;52.094;5.112;2023-09-07T06:58:25;10.80;;;5.68;;
62030;SDS011;62035;52.094;5.112;2023-09-07T07:00:56;11.38;;;6.00;;
62030;SDS011;62035;52.094;5.112;2023-09-07T07:03:25;12.15;;;5.75;;
62030;SDS011;62035;52.094;5.112;2023-09-07T07:05:53;8.57;;;5.07;;
62030;SDS011;62035;52.094;5.112;2023-09-07T07:08:22;9.13;;;5.13;;
62030;SDS011;62035;52.094;5.112;2023-09-07T07:10:50;9.40;;;4.90;;
62030;SDS011;62035;52.094;5.112;2023-09-07T07:13:17;11.80;;;5.45;;
62030;SDS011;62035;52.094;5.112;2023-09-07T07:15:44;11.50;;;5.53;;
62030;SDS011;62035;52.094;5.112;2023-09-07T07:18:11;11.50;;;5.60;;
62030;SDS011;62035;52.094;5.112;2023-09-07T07:20:39;12.57;;;5.40;;
62030;SDS011;62035;52.094;5.112;2023-09-07T07:23:07;9.30;;;5.10;;
62030;SDS011;62035;52.094;5.112;2023-09-07T07:25:36;14.00;;;4.90;;
62030;SDS011;62035;52.094;5.112;2023-09-07T07:28:03;7.78;;;4.70;;
62030;SDS011;62035;52.094;5.112;2023-09-07T07:30:31;10.38;;;5.10;;
62030;SDS011;62035;52.094;5.112;2023-09-07T07:32:59;10.68;;;4.88;;
62030;SDS011;62035;52.094;5.112;2023-09-07T07:35:26;9.10;;;4.30;;
62030;SDS011;62035;52.094;5.112;2023-09-07T07:37:53;6.13;;;4.30;;
62030;SDS011;62035;52.094;5.112;2023-09-07T07:40:20;8.88;;;4.30;;
62030;SDS011;62035;52.094;5.112;2023-09-07T07:42:52;9.73;;;4.57;;
62030;SDS011;62035;52.094;5.112;2023-09-07T07:45:19;10.20;;;5.00;;
62030;SDS011;62035;52.094;5.112;2023-09-07T07:47:48;8.88;;;4.65;;
62030;SDS011;62035;52.094;5.112;2023-09-07T07:50:15;8.63;;;4.38;;
62030;SDS011;62035;52.094;5.112;2023-09-07T07:52:42;7.47;;;4.22;;
62030;SDS011;62035;52.094;5.112;2023-09-07T07:55:10;7.40;;;4.68;;
62030;SDS011;62035;52.094;5.112;2023-09-07T07:57:38;13.60;;;4.38;;
62030;SDS011;62035;52.094;5.112;2023-09-07T08:00:07;6.07;;;3.88;;
62030;SDS011;62035;52.094;5.112;2023-09-07T08:02:36;6.75;;;3.65;;
62030;SDS011;62035;52.094;5.112;2023-09-07T08:05:05;11.00;;;3.90;;
62030;SDS011;62035;52.094;5.112;2023-09-07T08:07:33;6.93;;;3.38;;
62030;SDS011;62035;52.094;5.112;2023-09-07T08:10:00;10.00;;;3.60;;
62030;SDS011;62035;52.094;5.112;2023-09-07T08:12:28;9.57;;;3.60;;
62030;SDS011;62035;52.094;5.112;2023-09-07T08:14:56;15.32;;;4.25;;
62030;SDS011;62035;52.094;5.112;2023-09-07T08:17:25;6.05;;;3.45;;
62030;SDS011;62035;52.094;5.112;2023-09-07T08:19:52;5.72;;;3.53;;
62030;SDS011;62035;52.094;5.112;2023-09-07T08:22:22;5.15;;;3.08;;
62030;SDS011;62035;52.094;5.112;2023-09-07T08:24:49;7.00;;;3.53;;
62030;SDS011;62035;52.094;5.112;2023-09-07T08:27:16;13.57;;;3.05;;
62030;SDS011;62035;52.094;5.112;2023-09-07T08:29:44;9.93;;;3.50;;
62030;SDS011;62035;52.094;5.112;2023-09-07T08:32:17;7.35;;;3.30;;
62030;SDS011;62035;52.094;5.112;2023-09-07T08:34:45;6.93;;;3.80;;
62030;SDS011;62035;52.094;5.112;2023-09-07T08:37:12;9.32;;;3.50;;
62030;SDS011;62035;52.094;5.112;2023-09-07T08:39:40;10.75;;;3.58;;
62030;SDS011;62035;52.094;5.112;2023-09-07T08:42:07;10.23;;;3.30;;
62030;SDS011;62035;52.094;5.112;2023-09-07T08:44:36;6.25;;;3.28;;
62030;SDS011;62035;52.094;5.112;2023-09-07T08:47:04;8.55;;;3.42;;
62030;SDS011;62035;52.094;5.112;2023-09-07T08:49:32;5.80;;;3.40;;
62030;SDS011;62035;52.094;5.112;2023-09-07T08:52:02;5.25;;;3.25;;
62030;SDS011;62035;52.094;5.112;2023-09-07T08:54:30;5.78;;;3.33;;
62030;SDS011;62035;52.094;5.112;2023-09-07T08:56:58;7.72;;;3.33;;
62030;SDS011;62035;52.094;5.112;2023-09-07T08:59:29;9.13;;;3.10;;
62030;SDS011;62035;52.094;5.112;2023-09-07T09:01:57;8.27;;;3.00;;
62030;SDS011;62035;52.094;5.112;2023-09-07T09:04:25;7.97;;;3.33;;
62030;SDS011;62035;52.094;5.112;2023-09-07T09:06:53;9.05;;;3.30;;
62030;SDS011;62035;52.094;5.112;2023-09-07T09:09:24;7.20;;;3.50;;
62030;SDS011;62035;52.094;5.112;2023-09-07T09:11:52;6.80;;;3.25;;
62030;SDS011;62035;52.094;5.112;2023-09-07T09:14:20;6.65;;;2.90;;
62030;SDS011;62035;52.094;5.112;2023-09-07T09:16:48;10.98;;;3.10;;
62030;SDS011;62035;52.094;5.112;2023-09-07T09:19:17;8.02;;;3.38;;
62030;SDS011;62035;52.094;5.112;2023-09-07T09:21:44;8.40;;;3.17;;
62030;SDS011;62035;52.094;5.112;2023-09-07T09:24:12;5.95;;;3.35;;
62030;SDS011;62035;52.094;5.112;2023-09-07T09:26:42;9.00;;;3.03;;
62030;SDS011;62035;52.094;5.112;2023-09-07T09:29:09;4.88;;;3.00;;
62030;SDS011;62035;52.094;5.112;2023-09-07T09:31:37;4.65;;;2.97;;
62030;SDS011;62035;52.094;5.112;2023-09-07T09:34:04;9.00;;;4.38;;
62030;SDS011;62035;52.094;5.112;2023-09-07T09:36:33;8.50;;;3.80;;
62030;SDS011;62035;52.094;5.112;2023-09-07T09:39:01;6.35;;;3.40;;
62030;SDS011;62035;52.094;5.112;2023-09-07T09:41:31;5.40;;;3.00;;
62030;SDS011;62035;52.094;5.112;2023-09-07T09:44:00;4.85;;;3.00;;
62030;SDS011;62035;52.094;5.112;2023-09-07T09:46:31;5.53;;;3.33;;
62030;SDS011;62035;52.094;5.112;2023-09-07T09:48:58;6.18;;;3.38;;
62030;SDS011;62035;52.094;5.112;2023-09-07T09:51:28;12.38;;;3.00;;
62030;SDS011;62035;52.094;5.112;2023-09-07T09:53:58;5.77;;;3.00;;
62030;SDS011;62035;52.094;5.112;2023-09-07T09:56:27;8.35;;;3.30;;
62030;SDS011;62035;52.094;5.112;2023-09-07T09:58:54;8.50;;;3.28;;
62030;SDS011;62035;52.094;5.112;2023-09-07T10:01:23;9.57;;;3.30;;
62030;SDS011;62035;52.094;5.112;2023-09-07T10:03:51;9.07;;;3.60;;
62030;SDS011;62035;52.094;5.112;2023-09-07T10:06:22;8.02;;;3.20;;
62030;SDS011;62035;52.094;5.112;2023-09-07T10:08:58;8.30;;;3.55;;
62030;SDS011;62035;52.094;5.112;2023-09-07T10:11:27;7.47;;;3.42;;
62030;SDS011;62035;52.094;5.112;2023-09-07T10:13:57;6.63;;;3.25;;
62030;SDS011;62035;52.094;5.112;2023-09-07T10:16:26;5.68;;;3.25;;
62030;SDS011;62035;52.094;5.112;2023-09-07T10:18:53;13.48;;;4.13;;
62030;SDS011;62035;52.094;5.112;2023-09-07T10:21:24;9.80;;;3.10;;
62030;SDS011;62035;52.094;5.112;2023-09-07T10:23:52;7.25;;;3.65;;
62030;SDS011;62035;52.094;5.112;2023-09-07T10:26:20;14.23;;;3.88;;
62030;SDS011;62035;52.094;5.112;2023-09-07T10:28:47;10.85;;;3.60;;
62030;SDS011;62035;52.094;5.112;2023-09-07T10:31:27;9.73;;;4.28;;
62030;SDS011;62035;52.094;5.112;2023-09-07T10:33:56;6.80;;;3.17;;
62030;SDS011;62035;52.094;5.112;2023-09-07T10:36:23;9.60;;;3.15;;
62030;SDS011;62035;52.094;5.112;2023-09-07T10:38:52;8.05;;;3.97;;
62030;SDS011;62035;52.094;5.112;2023-09-07T10:41:20;9.80;;;3.25;;
62030;SDS011;62035;52.094;5.112;2023-09-07T10:43:49;6.28;;;3.13;;
62030;SDS011;62035;52.094;5.112;2023-09-07T10:46:18;8.95;;;3.42;;
62030;SDS011;62035;52.094;5.112;2023-09-07T10:48:49;8.82;;;3.30;;
62030;SDS011;62035;52.094;5.112;2023-09-07T10:51:17;6.15;;;3.67;;
62030;SDS011;62035;52.094;5.112;2023-09-07T10:53:45;4.60;;;2.75;;
62030;SDS011;62035;52.094;5.112;2023-09-07T10:56:12;5.10;;;2.90;;
62030;SDS011;62035;52.094;5.112;2023-09-07T10:58:40;5.22;;;2.70;;
62030;SDS011;62035;52.094;5.112;2023-09-07T11:01:09;10.07;;;2.95;;
62030;SDS011;62035;52.094;5.112;2023-09-07T11:03:37;7.40;;;3.22;;
62030;SDS011;62035;52.094;5.112;2023-09-07T11:06:06;6.95;;;3.13;;
62030;SDS011;62035;52.094;5.112;2023-09-07T11:08:37;6.70;;;3.55;;
62030;SDS011;62035;52.094;5.112;2023-09-07T11:11:04;6.28;;;3.00;;
62030;SDS011;62035;52.094;5.112;2023-09-07T11:13:32;6.57;;;3.40;;
62030;SDS011;62035;52.094;5.112;2023-09-07T11:16:00;6.00;;;3.22;;
62030;SDS011;62035;52.094;5.112;2023-09-07T11:18:27;5.88;;;3.10;;
62030;SDS011;62035;52.094;5.112;2023-09-07T11:20:55;7.63;;;2.83;;
62030;SDS011;62035;52.094;5.112;2023-09-07T11:23:26;6.35;;;2.72;;
62030;SDS011;62035;52.094;5.112;2023-09-07T11:25:54;6.65;;;3.20;;
62030;SDS011;62035;52.094;5.112;2023-09-07T11:28:21;9.05;;;3.20;;
62030;SDS011;62035;52.094;5.112;2023-09-07T11:30:50;5.30;;;3.13;;
62030;SDS011;62035;52.094;5.112;2023-09-07T11:33:18;9.63;;;3.30;;
62030;SDS011;62035;52.094;5.112;2023-09-07T11:35:47;5.78;;;3.35;;
62030;SDS011;62035;52.094;5.112;2023-09-07T11:38:15;6.80;;;3.30;;
62030;SDS011;62035;52.094;5.112;2023-09-07T11:40:44;14.38;;;3.53;;
62030;SDS011;62035;52.094;5.112;2023-09-07T11:43:11;8.18;;;3.45;;
62030;SDS011;62035;52.094;5.112;2023-09-07T11:45:39;7.32;;;3.80;;
62030;SDS011;62035;52.094;5.112;2023-09-07T11:48:06;6.55;;;3.40;;
62030;SDS011;62035;52.094;5.112;2023-09-07T11:50:34;7.53;;;3.38;;
62030;SDS011;62035;52.094;5.112;2023-09-07T11:53:03;6.45;;;3.28;;
62030;SDS011;62035;52.094;5.112;2023-09-07T11:55:30;12.45;;;3.70;;
62030;SDS011;62035;52.094;5.112;2023-09-07T11:57:59;8.35;;;3.15;;
62030;SDS011;62035;52.094;5.112;2023-09-07T12:00:27;6.00;;;3.35;;
62030;SDS011;62035;52.094;5.112;2023-09-07T12:02:55;8.68;;;3.17;;
62030;SDS011;62035;52.094;5.112;2023-09-07T12:05:22;4.53;;;3.33;;
62030;SDS011;62035;52.094;5.112;2023-09-07T12:07:50;9.70;;;3.58;;
62030;SDS011;62035;52.094;5.112;2023-09-07T12:10:17;5.88;;;3.08;;
62030;SDS011;62035;52.094;5.112;2023-09-07T12:12:44;6.15;;;3.15;;
62030;SDS011;62035;52.094;5.112;2023-09-07T12:15:13;8.43;;;3.40;;
62030;SDS011;62035;52.094;5.112;2023-09-07T12:17:40;6.88;;;3.47;;
62030;SDS011;62035;52.094;5.112;2023-09-07T12:20:08;6.20;;;3.83;;
62030;SDS011;62035;52.094;5.112;2023-09-07T12:22:36;9.82;;;3.63;;
62030;SDS011;62035;52.094;5.112;2023-09-07T12:25:04;6.50;;;3.30;;
62030;SDS011;62035;52.094;5.112;2023-09-07T12:27:33;4.72;;;3.03;;
62030;SDS011;62035;52.094;5.112;2023-09-07T12:30:00;5.97;;;4.00;;
62030;SDS011;62035;52.094;5.112;2023-09-07T12:32:33;7.20;;;3.30;;
62030;SDS011;62035;52.094;5.112;2023-09-07T12:35:00;8.32;;;3.17;;
62030;SDS011;62035;52.094;5.112;2023-09-07T12:37:28;6.53;;;3.00;;
62030;SDS011;62035;52.094;5.112;2023-09-07T12:39:55;6.53;;;3.35;;
62030;SDS011;62035;52.094;5.112;2023-09-07T12:42:22;8.60;;;3.28;;
62030;SDS011;62035;52.094;5.112;2023-09-07T12:44:50;7.72;;;4.95;;
62030;SDS011;62035;52.094;5.112;2023-09-07T12:47:17;8.45;;;3.10;;
62030;SDS011;62035;52.094;5.112;2023-09-07T12:49:45;7.03;;;3.25;;
62030;SDS011;62035;52.094;5.112;2023-09-07T12:52:13;6.45;;;2.90;;
62030;SDS011;62035;52.094;5.112;2023-09-07T12:54:41;7.32;;;3.35;;
62030;SDS011;62035;52.094;5.112;2023-09-07T12:57:08;4.25;;;3.15;;
62030;SDS011;62035;52.094;5.112;2023-09-07T12:59:35;6.72;;;3.00;;
62030;SDS011;62035;52.094;5.112;2023-09-07T13:02:03;8.90;;;3.10;;
62030;SDS011;62035;52.094;5.112;2023-09-07T13:04:30;5.15;;;2.97;;
62030;SDS011;62035;52.094;5.112;2023-09-07T13:06:59;6.93;;;3.30;;
62030;SDS011;62035;52.094;5.112;2023-09-07T13:09:27;7.00;;;3.30;;
62030;SDS011;62035;52.094;5.112;2023-09-07T13:11:55;8.57;;;3.28;;
62030;SDS011;62035;52.094;5.112;2023-09-07T13:14:22;6.50;;;3.90;;
62030;SDS011;62035;52.094;5.112;2023-09-07T13:16:49;6.60;;;3.83;;
62030;SDS011;62035;52.094;5.112;2023-09-07T13:19:17;8.32;;;3.15;;
62030;SDS011;62035;52.094;5.112;2023-09-07T13:21:45;7.32;;;3.42;;
62030;SDS011;62035;52.094;5.112;2023-09-07T13:24:13;8.38;;;3.17;;
62030;SDS011;62035;52.094;5.112;2023-09-07T13:26:40;9.10;;;3.22;;
62030;SDS011;62035;52.094;5.112;2023-09-07T13:29:08;10.00;;;3.25;;
62030;SDS011;62035;52.094;5.112;2023-09-07T13:31:34;5.63;;;3.40;;
62030;SDS011;62035;52.094;5.112;2023-09-07T13:34:02;4.63;;;3.08;;
62030;SDS011;62035;52.094;5.112;2023-09-07T13:36:29;6.50;;;3.30;;
62030;SDS011;62035;52.094;5.112;2023-09-07T13:38:56;9.68;;;3.72;;
62030;SDS011;62035;52.094;5.112;2023-09-07T13:41:26;20.30;;;5.15;;
62030;SDS011;62035;52.094;5.112;2023-09-07T13:43:53;7.25;;;3.22;;
62030;SDS011;62035;52.094;5.112;2023-09-07T13:46:22;8.43;;;3.50;;
62030;SDS011;62035;52.094;5.112;2023-09-07T13:48:50;9.65;;;3.45;;
62030;SDS011;62035;52.094;5.112;2023-09-07T13:51:17;7.93;;;3.15;;
62030;SDS011;62035;52.094;5.112;2023-09-07T13:53:44;4.80;;;3.35;;
62030;SDS011;62035;52.094;5.112;2023-09-07T13:56:11;8.60;;;3.40;;
62030;SDS011;62035;52.094;5.112;2023-09-07T13:58:40;12.60;;;4.35;;
62030;SDS011;62035;52.094;5.112;2023-09-07T14:01:07;5.70;;;3.10;;
62030;SDS011;62035;52.094;5.112;2023-09-07T14:03:34;11.60;;;3.90;;
62030;SDS011;62035;52.094;5.112;2023-09-07T14:06:02;6.70;;;3.90;;
62030;SDS011;62035;52.094;5.112;2023-09-07T14:08:30;9.50;;;3.67;;
62030;SDS011;62035;52.094;5.112;2023-09-07T14:10:58;7.40;;;3.33;;
62030;SDS011;62035;52.094;5.112;2023-09-07T14:13:26;6.60;;;3.40;;
62030;SDS011;62035;52.094;5.112;2023-09-07T14:15:54;10.10;;;3.85;;
62030;SDS011;62035;52.094;5.112;2023-09-07T14:18:22;12.02;;;3.75;;
62030;SDS011;62035;52.094;5.112;2023-09-07T14:20:49;5.15;;;3.15;;
62030;SDS011;62035;52.094;5.112;2023-09-07T14:23:16;6.38;;;3.72;;
62030;SDS011;62035;52.094;5.112;2023-09-07T14:25:46;9.27;;;3.77;;
62030;SDS011;62035;52.094;5.112;2023-09-07T14:28:13;7.13;;;3.95;;
62030;SDS011;62035;52.094;5.112;2023-09-07T14:30:40;6.85;;;3.70;;
62030;SDS011;62035;52.094;5.112;2023-09-07T14:33:09;5.35;;;3.47;;
62030;SDS011;62035;52.094;5.112;2023-09-07T14:35:36;7.25;;;3.50;;
62030;SDS011;62035;52.094;5.112;2023-09-07T14:38:03;5.60;;;3.30;;
62030;SDS011;62035;52.094;5.112;2023-09-07T14:40:32;5.30;;;3.35;;
62030;SDS011;62035;52.094;5.112;2023-09-07T14:42:59;6.05;;;3.55;;
62030;SDS011;62035;52.094;5.112;2023-09-07T14:45:27;10.27;;;3.65;;
62030;SDS011;62035;52.094;5.112;2023-09-07T14:47:54;5.28;;;3.25;;
62030;SDS011;62035;52.094;5.112;2023-09-07T14:50:23;7.43;;;3.42;;